Time;durP1;ratioP1;P1;durP2;ratioP2;P2;SDS_P1;SDS_P2;PMS_P1;PMS_P2;Temp;Humidity;BMP_temperature;BMP_pressure;BME280_temperature;BME280_humidity;BME280_pressure;Samples;Min_cycle;Max_cycle;Signal;HPM_P1;HPM_P2
2022/06/08 00:00:58;;;;;;;;;;;;;;;21.49;100.00;97615.03;5043075;28;19963;-59
2022/06/08 00:03:27;;;;;;;;;;;;;;;21.55;100.00;97624.53;5040683;28;19993;-59
2022/06/08 00:05:53;;;;;;;;;;;;;;;21.55;100.00;97629.97;5041350;28;19993;-59
2022/06/08 00:08:21;;;;;;;;;;;;;;;21.68;100.00;97617.16;5043020;28;19924;-59
2022/06/08 00:10:48;;;;;;;;;;;;;;;21.73;100.00;97622.34;5044288;28;19929;-59
2022/06/08 00:13:14;;;;;;;;;;;;;;;21.77;100.00;97621.34;5041130;28;19926;-61
2022/06/08 00:15:42;;;;;;;;;;;;;;;21.76;100.00;97624.38;5040461;28;19922;-60
2022/06/08 00:18:10;;;;;;;;;;;;;;;21.82;100.00;97623.00;5043379;28;19930;-60
2022/06/08 00:20:37;;;;;;;;;;;;;;;21.81;100.00;97618.72;5043986;28;19921;-60
2022/06/08 00:23:04;;;;;;;;;;;;;;;21.76;100.00;97613.50;5041799;28;19935;-59
2022/06/08 00:25:32;;;;;;;;;;;;;;;21.43;100.00;97614.47;5040289;28;20021;-59
2022/06/08 00:27:58;;;;;;;;;;;;;;;21.43;100.00;97617.19;5041756;28;19926;-59
2022/06/08 00:30:25;;;;;;;;;;;;;;;21.51;100.00;97613.53;5043624;28;19945;-60
2022/06/08 00:32:51;;;;;;;;;;;;;;;21.62;100.00;97610.38;5043556;28;19975;-61
2022/06/08 00:35:18;;;;;;;;;;;;;;;21.72;100.00;97609.91;5040332;28;19967;-61
2022/06/08 00:37:44;;;;;;;;;;;;;;;21.52;100.00;97608.91;5040334;28;19953;-59
2022/06/08 00:40:11;;;;;;;;;;;;;;;21.46;100.00;97610.25;5043251;28;19925;-60
2022/06/08 00:42:40;;;;;;;;;;;;;;;21.50;100.00;97609.25;5043382;28;19936;-60
2022/06/08 00:45:08;;;;;;;;;;;;;;;21.56;100.00;97612.53;5040942;28;19925;-60
2022/06/08 00:47:36;;;;;;;;;;;;;;;21.49;100.00;97615.81;5040041;28;19926;-60
2022/06/08 00:50:05;;;;;;;;;;;;;;;21.48;100.00;97608.78;5041670;28;19997;-59
2022/06/08 00:52:33;;;;;;;;;;;;;;;21.62;100.00;97604.94;5043440;28;19992;-60
2022/06/08 00:55:02;;;;;;;;;;;;;;;21.39;100.00;97605.41;5041791;28;19921;-60
2022/06/08 00:57:31;;;;;;;;;;;;;;;21.36;100.00;97597.94;5038641;28;19925;-59
2022/06/08 01:00:02;;;;;;;;;;;;;;;21.41;100.00;97600.44;5040936;28;20004;-60
2022/06/08 01:02:28;;;;;;;;;;;;;;;21.44;100.00;97605.19;5043104;28;19921;-59
2022/06/08 01:05:09;;;;;;;;;;;;;;;21.33;100.00;97606.75;5042387;28;19921;-60
2022/06/08 01:07:38;;;;;;;;;;;;;;;21.24;100.00;97595.22;5038827;28;19968;-60
2022/06/08 01:10:04;;;;;;;;;;;;;;;21.34;100.00;97602.13;5041718;28;19925;-60
2022/06/08 01:12:31;;;;;;;;;;;;;;;21.45;100.00;97604.03;5042882;28;19921;-59
2022/06/08 01:14:58;;;;;;;;;;;;;;;21.41;100.00;97603.16;5041645;28;20000;-60
2022/06/08 01:17:25;;;;;;;;;;;;;;;21.39;100.00;97607.31;5039363;28;19925;-59
2022/06/08 01:19:51;;;;;;;;;;;;;;;21.50;100.00;97601.13;5039678;28;19964;-59
2022/06/08 01:22:20;;;;;;;;;;;;;;;21.37;100.00;97599.53;5042870;28;19932;-59
2022/06/08 01:24:47;;;;;;;;;;;;;;;21.45;100.00;97601.31;5042764;28;19948;-59
2022/06/08 01:27:26;;;;;;;;;;;;;;;21.55;100.00;97589.19;5031058;28;19985;-60
2022/06/08 01:29:59;;;;;;;;;;;;;;;21.59;100.00;97592.03;5031037;28;19981;-60
2022/06/08 01:32:34;;;;;;;;;;;;;;;21.58;100.00;97596.66;5030951;28;19933;-60
2022/06/08 01:35:10;;;;;;;;;;;;;;;21.52;100.00;97587.97;5030878;28;19925;-60
2022/06/08 01:37:43;;;;;;;;;;;;;;;21.58;100.00;97593.16;5030851;28;19925;-59
2022/06/08 01:40:17;;;;;;;;;;;;;;;21.54;100.00;97588.41;5030792;28;19936;-59
2022/06/08 01:42:50;;;;;;;;;;;;;;;21.51;100.00;97580.94;5038271;28;19936;-60
2022/06/08 01:45:30;;;;;;;;;;;;;;;21.45;100.00;97587.75;5039133;28;19926;-59
2022/06/08 01:48:11;;;;;;;;;;;;;;;21.54;100.00;97582.97;5040281;28;19944;-60
2022/06/08 01:50:47;;;;;;;;;;;;;;;21.48;100.00;97583.53;5042614;28;19925;-60
2022/06/08 01:53:32;;;;;;;;;;;;;;;21.36;100.00;97587.06;5039481;28;19964;-59
2022/06/08 01:56:01;;;;;;;;;;;;;;;21.36;100.00;97583.56;5040424;28;19925;-59
2022/06/08 01:58:35;;;;;;;;;;;;;;;21.20;100.00;97572.59;5042504;28;19932;-60
2022/06/08 02:01:04;;;;;;;;;;;;;;;21.24;100.00;97573.50;5040541;28;19947;-60
2022/06/08 02:03:36;;;;;;;;;;;;;;;21.30;100.00;97561.28;5038921;28;19972;-60
2022/06/08 02:06:07;;;;;;;;;;;;;;;21.36;100.00;97559.91;5040950;28;19922;-60
2022/06/08 02:08:37;;;;;;;;;;;;;;;21.42;100.00;97555.81;5042192;28;19925;-61
2022/06/08 02:11:09;;;;;;;;;;;;;;;21.41;100.00;97556.97;5040453;28;19929;-60
2022/06/08 02:13:39;;;;;;;;;;;;;;;21.35;100.00;97555.59;5038932;28;19984;-60
2022/06/08 02:16:08;;;;;;;;;;;;;;;21.32;100.00;97550.84;5056585;28;19926;-60
2022/06/08 02:18:37;;;;;;;;;;;;;;;21.20;100.00;97550.84;5040548;28;19960;-60
2022/06/08 02:21:07;;;;;;;;;;;;;;;21.20;100.00;97550.84;5040252;28;19921;-60
2022/06/08 02:23:41;;;;;;;;;;;;;;;20.96;100.00;97548.13;5038945;28;19957;-60
2022/06/08 02:26:11;;;;;;;;;;;;;;;20.88;100.00;97538.16;5041404;28;19925;-60
2022/06/08 02:28:39;;;;;;;;;;;;;;;20.99;100.00;97553.66;5042088;28;19932;-60
2022/06/08 02:31:10;;;;;;;;;;;;;;;21.12;100.00;97550.97;5039721;28;19967;-60
2022/06/08 02:36:24;;;;;;;;;;;;;;;21.13;100.00;97550.66;5038481;28;19997;-60
2022/06/08 02:38:53;;;;;;;;;;;;;;;21.23;100.00;97547.47;5038707;28;19926;-60
2022/06/08 02:41:22;;;;;;;;;;;;;;;21.25;100.00;97556.06;5040873;28;19929;-60
2022/06/08 02:43:50;;;;;;;;;;;;;;;21.24;100.00;97562.63;5041696;28;19925;-60
2022/06/08 02:46:21;;;;;;;;;;;;;;;21.23;100.00;97552.88;5038426;28;19969;-60
2022/06/08 02:48:47;;;;;;;;;;;;;;;21.28;100.00;97544.53;5038421;28;19965;-60
2022/06/08 02:51:14;;;;;;;;;;;;;;;21.29;100.00;97548.03;5038315;28;20774;-61
2022/06/08 02:53:45;;;;;;;;;;;;;;;21.17;100.00;97548.06;5038529;28;19956;-61
2022/06/08 02:56:16;;;;;;;;;;;;;;;21.24;100.00;97553.69;5041438;28;20420;-60
2022/06/08 02:58:45;;;;;;;;;;;;;;;21.23;100.00;97549.41;5041643;28;19929;-61
2022/06/08 03:01:15;;;;;;;;;;;;;;;20.78;100.00;97536.69;5038185;28;19967;-60
2022/06/08 03:03:45;;;;;;;;;;;;;;;20.64;100.00;97547.06;5037901;28;20410;-60
2022/06/08 03:06:15;;;;;;;;;;;;;;;20.06;100.00;97553.53;5041190;28;19956;-60
2022/06/08 03:08:47;;;;;;;;;;;;;;;20.15;100.00;97556.16;5041468;28;19925;-61
2022/06/08 03:11:15;;;;;;;;;;;;;;;20.52;100.00;97554.41;5037040;28;20024;-61
2022/06/08 03:13:45;;;;;;;;;;;;;;;20.61;100.00;97553.16;5038303;28;19930;-61
2022/06/08 03:16:24;;;;;;;;;;;;;;;20.63;100.00;97560.97;5041053;28;19968;-61
2022/06/08 03:18:50;;;;;;;;;;;;;;;20.72;100.00;97551.59;5041127;28;19921;-60
2022/06/08 03:21:17;;;;;;;;;;;;;;;20.49;100.00;97555.06;5037846;28;19926;-59
2022/06/08 03:23:43;;;;;;;;;;;;;;;20.33;100.00;97560.34;5037932;28;19985;-61
2022/06/08 03:26:10;;;;;;;;;;;;;;;20.27;100.00;97543.47;5040596;28;19925;-60
2022/06/08 03:28:38;;;;;;;;;;;;;;;20.54;100.00;97552.13;5041141;28;19992;-60
2022/06/08 03:31:04;;;;;;;;;;;;;;;20.69;100.00;97565.06;5041011;28;19925;-61
2022/06/08 03:33:30;;;;;;;;;;;;;;;20.81;100.00;97567.78;5041505;28;19956;-59
2022/06/08 03:35:57;;;;;;;;;;;;;;;20.87;100.00;97564.50;5042698;28;19960;-59
2022/06/08 03:38:23;;;;;;;;;;;;;;;20.77;100.00;97569.56;5045197;28;19925;-59
2022/06/08 03:40:50;;;;;;;;;;;;;;;20.85;100.00;97569.50;5044998;28;19921;-59
2022/06/08 03:43:16;;;;;;;;;;;;;;;20.86;100.00;97571.06;5041673;28;19921;-60
2022/06/08 03:45:46;;;;;;;;;;;;;;;20.92;100.00;97555.38;5041434;28;19921;-60
2022/06/08 03:48:14;;;;;;;;;;;;;;;20.95;100.00;97577.19;5044748;28;19925;-61
2022/06/08 03:50:41;;;;;;;;;;;;;;;21.01;100.00;97569.63;5044752;28;19925;-60
2022/06/08 03:53:09;;;;;;;;;;;;;;;20.92;100.00;97579.81;5042268;28;19953;-59
2022/06/08 03:55:36;;;;;;;;;;;;;;;21.04;100.00;97585.25;5041191;28;19925;-60
2022/06/08 03:58:03;;;;;;;;;;;;;;;21.05;100.00;97591.44;5042853;28;19925;-60
2022/06/08 04:00:30;;;;;;;;;;;;;;;20.68;100.00;97587.88;5044422;28;19964;-60
2022/06/08 04:02:58;;;;;;;;;;;;;;;20.42;100.00;97588.94;5043502;28;19925;-61
2022/06/08 04:05:25;;;;;;;;;;;;;;;20.52;100.00;97581.53;5041287;28;19933;-61
2022/06/08 04:07:51;;;;;;;;;;;;;;;20.59;100.00;97587.97;5041201;28;19921;-60
2022/06/08 04:10:17;;;;;;;;;;;;;;;20.73;100.00;97587.69;5044679;28;19968;-61
2022/06/08 04:12:44;;;;;;;;;;;;;;;20.90;100.00;97582.03;5044734;28;20431;-61
2022/06/08 04:15:41;;;;;;;;;;;;;;;20.96;100.00;97570.63;5040345;28;20528;-60
2022/06/08 04:17:59;;;;;;;;;;;;;;;20.68;100.00;97566.97;5041754;28;20581;-61
2022/06/08 04:20:26;;;;;;;;;;;;;;;20.70;100.00;97567.44;5044291;28;19925;-60
2022/06/08 04:22:52;;;;;;;;;;;;;;;20.80;100.00;97568.91;5043645;28;19988;-60
2022/06/08 04:25:18;;;;;;;;;;;;;;;20.87;100.00;97571.84;5040866;28;20617;-60
2022/06/08 04:27:45;;;;;;;;;;;;;;;20.92;100.00;97574.38;5040504;28;19960;-60
2022/06/08 04:30:12;;;;;;;;;;;;;;;20.96;100.00;97570.63;5043754;28;20291;-60
2022/06/08 04:32:38;;;;;;;;;;;;;;;20.93;100.00;97571.31;5043890;28;19925;-60
2022/06/08 04:35:07;;;;;;;;;;;;;;;20.79;100.00;97568.13;5042042;28;19964;-60
2022/06/08 04:37:37;;;;;;;;;;;;;;;20.32;100.00;97567.69;5040536;28;20409;-60
2022/06/08 04:40:03;;;;;;;;;;;;;;;20.02;100.00;97571.59;5042301;28;19932;-60
2022/06/08 04:42:30;;;;;;;;;;;;;;;19.73;100.00;97574.38;5042786;28;19944;-61
2022/06/08 04:44:56;;;;;;;;;;;;;;;19.60;100.00;97573.50;5042644;28;19988;-59
2022/06/08 04:47:23;;;;;;;;;;;;;;;19.52;100.00;97571.66;5040218;28;19925;-60
2022/06/08 04:49:49;;;;;;;;;;;;;;;19.33;100.00;97561.22;5040204;28;19936;-59
2022/06/08 04:52:17;;;;;;;;;;;;;;;19.49;100.00;97561.47;5043754;28;19979;-59
2022/06/08 04:54:43;;;;;;;;;;;;;;;19.78;100.00;97563.31;5043547;28;19925;-60
2022/06/08 04:57:10;;;;;;;;;;;;;;;20.06;100.00;97561.66;5040603;28;20613;-60
2022/06/08 04:59:37;;;;;;;;;;;;;;;20.26;100.00;97569.00;5040040;28;19981;-60
2022/06/08 05:02:03;;;;;;;;;;;;;;;20.14;100.00;97563.53;5041911;28;19926;-60
2022/06/08 05:04:30;;;;;;;;;;;;;;;19.99;100.00;97569.56;5043187;28;19925;-60
2022/06/08 05:06:57;;;;;;;;;;;;;;;20.11;100.00;97569.59;5041933;28;19933;-59
2022/06/08 05:09:24;;;;;;;;;;;;;;;20.41;100.00;97570.28;5039749;28;20608;-60
2022/06/08 05:11:51;;;;;;;;;;;;;;;20.54;100.00;97565.69;5040431;28;19925;-60
2022/06/08 05:14:17;;;;;;;;;;;;;;;20.40;100.00;97564.06;5043515;28;19968;-60
2022/06/08 05:16:44;;;;;;;;;;;;;;;20.28;100.00;97566.75;5043258;28;19925;-60
2022/06/08 05:19:11;;;;;;;;;;;;;;;20.34;100.00;97561.91;5040099;28;19940;-60
2022/06/08 05:21:37;;;;;;;;;;;;;;;20.41;100.00;97560.25;5039566;28;19968;-60
2022/06/08 05:24:04;;;;;;;;;;;;;;;20.39;100.00;97557.06;5041565;28;20020;-60
2022/06/08 05:26:32;;;;;;;;;;;;;;;20.60;100.00;97557.00;5043061;28;19926;-60
2022/06/08 05:28:58;;;;;;;;;;;;;;;20.75;100.00;97552.84;5041610;28;20016;-61
2022/06/08 05:31:24;;;;;;;;;;;;;;;20.83;100.00;97555.44;5039423;28;19925;-60
2022/06/08 05:33:52;;;;;;;;;;;;;;;20.68;100.00;97549.88;5039698;28;20012;-60
2022/06/08 05:36:18;;;;;;;;;;;;;;;20.94;100.00;97542.25;5042915;28;19957;-60
2022/06/08 05:38:45;;;;;;;;;;;;;;;21.04;100.00;97544.50;5042726;28;19960;-60
2022/06/08 05:41:11;;;;;;;;;;;;;;;20.85;100.00;97545.06;5039818;28;19925;-60
2022/06/08 05:43:39;;;;;;;;;;;;;;;20.86;100.00;97553.97;5039841;28;19952;-60
2022/06/08 05:46:05;;;;;;;;;;;;;;;21.19;100.00;97543.84;5041604;28;19925;-60
2022/06/08 05:48:32;;;;;;;;;;;;;;;21.23;100.00;97535.81;5042329;28;19956;-60
2022/06/08 05:50:58;;;;;;;;;;;;;;;21.34;100.00;97534.22;5041031;28;19948;-60
2022/06/08 05:53:25;;;;;;;;;;;;;;;21.52;100.00;97530.91;5038572;28;19968;-61
2022/06/08 05:55:51;;;;;;;;;;;;;;;21.47;100.00;97531.16;5064335;22;19951;-61
2022/06/08 05:58:18;;;;;;;;;;;;;;;21.34;100.00;97532.31;5061018;28;19929;-60
2022/06/08 06:00:46;;;;;;;;;;;;;;;21.74;100.00;97535.03;5061927;28;19925;-60
2022/06/08 06:03:12;;;;;;;;;;;;;;;21.36;100.00;97535.44;5058908;28;19948;-60
2022/06/08 06:05:39;;;;;;;;;;;;;;;21.60;100.00;97536.56;5058602;28;20421;-60
2022/06/08 06:08:07;;;;;;;;;;;;;;;21.96;100.00;97537.28;5060733;28;19960;-60
2022/06/08 06:10:34;;;;;;;;;;;;;;;22.18;100.00;97533.22;5061834;28;19925;-60
2022/06/08 06:13:01;;;;;;;;;;;;;;;21.75;100.00;97544.00;5060237;28;19964;-60
2022/06/08 06:15:27;;;;;;;;;;;;;;;22.08;100.00;97543.78;5057174;28;19929;-60
2022/06/08 06:17:55;;;;;;;;;;;;;;;22.19;100.00;97539.44;5058786;28;19925;-60
2022/06/08 06:20:22;;;;;;;;;;;;;;;22.18;100.00;97529.69;5061896;28;19925;-60
2022/06/08 06:22:48;;;;;;;;;;;;;;;21.97;100.00;97538.06;5061822;28;19932;-60
2022/06/08 06:25:14;;;;;;;;;;;;;;;21.53;100.00;97529.78;5058350;28;19925;-60
2022/06/08 06:27:41;;;;;;;;;;;;;;;21.42;100.00;97520.50;5057999;28;19940;-60
2022/06/08 06:30:08;;;;;;;;;;;;;;;21.82;100.00;97527.88;5060642;28;19927;-60
2022/06/08 06:32:35;;;;;;;;;;;;;;;21.41;100.00;97520.84;5061486;28;19971;-60
2022/06/08 06:35:03;;;;;;;;;;;;;;;21.45;100.00;97522.53;5059849;28;19947;-60
2022/06/08 06:37:30;;;;;;;;;;;;;;;21.63;100.00;97519.56;5058291;28;19925;-60
2022/06/08 06:39:57;;;;;;;;;;;;;;;21.89;100.00;97519.94;5059155;28;19921;-60
2022/06/08 06:42:25;;;;;;;;;;;;;;;22.06;100.00;97519.66;5061394;28;19925;-60
2022/06/08 06:44:52;;;;;;;;;;;;;;;21.68;100.00;97519.31;5061236;28;20016;-60
2022/06/08 06:47:18;;;;;;;;;;;;;;;21.37;100.00;97525.38;5058124;28;19925;-60
2022/06/08 06:49:44;;;;;;;;;;;;;;;21.50;100.00;97530.47;5057960;28;19929;-60
2022/06/08 06:52:13;;;;;;;;;;;;;;;21.39;100.00;97534.78;5060970;28;19956;-60
2022/06/08 06:54:39;;;;;;;;;;;;;;;21.57;100.00;97529.09;5061114;28;19935;-60
2022/06/08 06:57:06;;;;;;;;;;;;;;;21.57;100.00;97523.66;5059035;28;19925;-59
2022/06/08 06:59:32;;;;;;;;;;;;;;;21.58;100.00;97519.78;5057697;28;19988;-61
2022/06/08 07:01:58;;;;;;;;;;;;;;;21.43;100.00;97522.09;5074487;28;20646;-60
2022/06/08 07:04:25;;;;;;;;;;;;;;;21.63;100.00;97522.28;5061065;28;19959;-60
2022/06/08 07:06:53;;;;;;;;;;;;;;;21.77;100.00;97511.81;5064071;28;19935;-64
2022/06/08 07:09:20;;;;;;;;;;;;;;;22.04;100.00;97522.72;5061783;28;19925;-60
2022/06/08 07:11:47;;;;;;;;;;;;;;;22.25;100.00;97519.78;5061793;28;19925;-60
2022/06/08 07:14:17;;;;;;;;;;;;;;;21.83;100.00;97513.94;5065205;28;19948;-60
2022/06/08 07:16:45;;;;;;;;;;;;;;;21.74;100.00;97515.22;5065152;28;19924;-60
2022/06/08 07:19:11;;;;;;;;;;;;;;;21.65;100.00;97515.38;5062134;28;19935;-59
2022/06/08 07:21:38;;;;;;;;;;;;;;;21.68;100.00;97506.53;5061791;28;19980;-59
2022/06/08 07:24:05;;;;;;;;;;;;;;;21.30;100.00;97512.38;5063638;28;19932;-59
2022/06/08 07:26:32;;;;;;;;;;;;;;;21.03;100.00;97499.47;5064998;28;19968;-60
2022/06/08 07:28:59;;;;;;;;;;;;;;;20.96;100.00;97504.69;5063769;28;19929;-60
2022/06/08 07:31:26;;;;;;;;;;;;;;;21.21;100.00;97511.72;5061532;28;19925;-59
2022/06/08 07:33:53;;;;;;;;;;;;;;;21.44;100.00;97498.44;5061724;28;19925;-60
2022/06/08 07:36:20;;;;;;;;;;;;;;;21.66;100.00;97497.94;5064733;28;19953;-60
2022/06/08 07:38:47;;;;;;;;;;;;;;;21.47;100.00;97493.13;5065054;28;19931;-59
2022/06/08 07:41:13;;;;;;;;;;;;;;;21.39;100.00;97490.50;5061632;28;19970;-60
2022/06/08 07:43:41;;;;;;;;;;;;;;;21.44;100.00;97477.50;5061287;28;19925;-60
2022/06/08 07:46:07;;;;;;;;;;;;;;;21.63;100.00;97489.69;5063870;28;20560;-60
2022/06/08 07:51:23;;;;;;;;;;;;;;;21.36;100.00;97477.63;5029675;28;19921;-59
2022/06/08 07:53:49;;;;;;;;;;;;;;;21.35;100.00;97484.19;5061068;28;19948;-59
2022/06/08 07:56:16;;;;;;;;;;;;;;;21.40;100.00;97476.59;5061073;28;20540;-59
2022/06/08 07:58:43;;;;;;;;;;;;;;;21.23;100.00;97482.28;5061116;28;19972;-60
2022/06/08 08:01:10;;;;;;;;;;;;;;;20.81;100.00;97475.50;5064168;28;20091;-60
2022/06/08 08:03:37;;;;;;;;;;;;;;;20.60;100.00;97475.63;5064372;28;19925;-60
2022/06/08 08:06:04;;;;;;;;;;;;;;;20.69;100.00;97464.66;5062423;28;19933;-60
2022/06/08 08:08:30;;;;;;;;;;;;;;;20.62;100.00;97473.34;5060676;28;19952;-60
2022/06/08 08:10:57;;;;;;;;;;;;;;;20.86;100.00;97478.78;5062029;28;19925;-60
2022/06/08 08:13:23;;;;;;;;;;;;;;;21.03;100.00;97477.75;5067535;28;19925;-60
2022/06/08 08:15:51;;;;;;;;;;;;;;;20.76;100.00;97476.53;5060879;28;19929;-60
2022/06/08 08:18:18;;;;;;;;;;;;;;;20.56;100.00;97471.19;5051510;28;19921;-60
2022/06/08 08:20:46;;;;;;;;;;;;;;;20.54;100.00;97454.47;5052496;28;19932;-60
2022/06/08 08:23:12;;;;;;;;;;;;;;;20.71;100.00;97454.25;5052453;28;20480;-60
2022/06/08 08:25:39;;;;;;;;;;;;;;;20.93;100.00;97448.34;5051360;28;19929;-60
2022/06/08 08:28:05;;;;;;;;;;;;;;;21.23;100.00;97446.97;5052129;28;19965;-60
2022/06/08 08:30:32;;;;;;;;;;;;;;;21.60;100.00;97444.16;5052278;28;20520;-60
2022/06/08 08:33:00;;;;;;;;;;;;;;;21.75;100.00;97446.16;5052245;28;19929;-60
2022/06/08 08:35:27;;;;;;;;;;;;;;;21.97;100.00;97435.50;5051971;28;19933;-60
2022/06/08 08:37:54;;;;;;;;;;;;;;;21.88;100.00;97428.66;5051710;28;19936;-60
2022/06/08 08:40:26;;;;;;;;;;;;;;;21.93;100.00;97428.41;5051455;28;19952;-60
2022/06/08 08:42:53;;;;;;;;;;;;;;;22.00;100.00;97429.38;5060280;28;19927;-60
2022/06/08 08:45:19;;;;;;;;;;;;;;;21.80;100.00;97426.84;5060047;28;19929;-60
2022/06/08 08:47:48;;;;;;;;;;;;;;;21.66;100.00;97430.00;5060004;28;20397;-60
2022/06/08 08:50:19;;;;;;;;;;;;;;;21.49;100.00;97431.06;5063105;28;19925;-60
2022/06/08 08:52:49;;;;;;;;;;;;;;;21.56;100.00;97422.31;5063139;28;19931;-59
2022/06/08 08:55:24;;;;;;;;;;;;;;;21.55;100.00;97423.44;5051312;28;19925;-59
2022/06/08 08:57:55;;;;;;;;;;;;;;;21.63;100.00;97424.47;5051571;28;19925;-59
2022/06/08 09:00:27;;;;;;;;;;;;;;;21.54;100.00;97422.66;5051399;28;19925;-60
2022/06/08 09:05:40;;;;;;;;;;;;;;;21.37;100.00;97412.09;5051339;28;19999;-60
2022/06/08 09:08:08;;;;;;;;;;;;;;;21.36;100.00;97413.22;5051229;28;19941;-60
2022/06/08 09:10:35;;;;;;;;;;;;;;;21.43;100.00;97410.72;5051021;28;19956;-60
2022/06/08 09:13:02;;;;;;;;;;;;;;;21.65;100.00;97416.75;5059176;28;19955;-60
2022/06/08 09:15:43;;;;;;;;;;;;;;;21.82;100.00;97400.09;5059386;28;19925;-60
2022/06/08 09:18:17;;;;;;;;;;;;;;;21.97;100.00;97396.69;5061770;28;19925;-60
2022/06/08 09:20:45;;;;;;;;;;;;;;;21.74;100.00;97390.19;5062592;28;19950;-60
2022/06/08 09:23:22;;;;;;;;;;;;;;;22.09;100.00;97393.88;5059703;28;19925;-59
2022/06/08 09:26:00;;;;;;;;;;;;;;;21.90;99.13;97401.94;5059263;28;19963;-59
2022/06/08 09:28:29;;;;;;;;;;;;;;;21.78;97.66;97391.88;5058538;28;19989;-59
2022/06/08 09:30:55;;;;;;;;;;;;;;;21.75;96.13;97389.06;5059793;28;19956;-59
2022/06/08 09:33:24;;;;;;;;;;;;;;;22.00;98.82;97375.00;5062423;28;19931;-59
2022/06/08 09:35:53;;;;;;;;;;;;;;;22.28;100.00;97388.50;5062322;28;19992;-60
2022/06/08 09:38:21;;;;;;;;;;;;;;;22.31;98.88;97390.53;5059006;28;19925;-59
2022/06/08 09:40:51;;;;;;;;;;;;;;;22.50;94.87;97376.22;5059137;28;19921;-60
2022/06/08 09:43:32;;;;;;;;;;;;;;;22.42;88.63;97363.59;5059482;28;19925;-60
2022/06/08 09:46:03;;;;;;;;;;;;;;;22.69;88.96;97364.63;5058932;28;19935;-60
2022/06/08 09:51:30;;;;;;;;;;;;;;;22.41;82.40;97360.09;5058678;28;19925;-60
2022/06/08 09:54:02;;;;;;;;;;;;;;;22.41;89.00;97346.47;5059473;28;19925;-60
2022/06/08 09:56:40;;;;;;;;;;;;;;;22.43;92.44;97346.13;5060896;28;19935;-59
2022/06/08 09:59:14;;;;;;;;;;;;;;;22.34;93.42;97337.38;5059739;28;19925;-60
2022/06/08 10:01:44;;;;;;;;;;;;;;;22.35;93.97;97337.00;5058488;28;20096;-60
2022/06/08 10:04:26;;;;;;;;;;;;;;;22.54;93.98;97347.94;5061378;28;19933;-60
2022/06/08 10:06:58;;;;;;;;;;;;;;;22.90;90.04;97338.66;5061937;28;19924;-60
2022/06/08 10:09:28;;;;;;;;;;;;;;;23.05;88.41;97331.59;5058460;28;19921;-60
2022/06/08 10:12:01;;;;;;;;;;;;;;;22.66;85.89;97340.84;5059025;28;19929;-60
2022/06/08 10:14:33;;;;;;;;;;;;;;;22.57;87.88;97339.09;5061929;28;19925;-61
2022/06/08 10:17:03;;;;;;;;;;;;;;;22.69;88.79;97330.03;5060552;28;19988;-60
2022/06/08 10:19:33;;;;;;;;;;;;;;;22.80;83.61;97325.63;5058545;28;19932;-60
2022/06/08 10:22:03;;;;;;;;;;;;;;;23.00;83.07;97326.41;5059698;28;19921;-60
2022/06/08 10:24:33;;;;;;;;;;;;;;;23.01;78.03;97319.84;5077450;28;19925;-60
2022/06/08 10:27:04;;;;;;;;;;;;;;;23.20;76.95;97327.22;5059364;28;20494;-60
2022/06/08 10:29:34;;;;;;;;;;;;;;;23.09;82.43;97313.38;5058199;28;19968;-60
2022/06/08 10:32:05;;;;;;;;;;;;;;;23.54;81.17;97310.81;5059685;28;20012;-60
2022/06/08 10:34:32;;;;;;;;;;;;;;;23.26;79.91;97314.88;5061764;28;19925;-60
2022/06/08 10:37:04;;;;;;;;;;;;;;;22.91;80.58;97317.66;5060429;28;19951;-60
2022/06/08 10:39:33;;;;;;;;;;;;;;;23.03;82.24;97321.03;5057889;28;19926;-60
2022/06/08 10:44:59;;;;;;;;;;;;;;;22.79;74.22;97312.34;5064441;28;19929;-60
2022/06/08 10:47:27;;;;;;;;;;;;;;;22.83;80.48;97302.34;5062173;28;19925;-60
2022/06/08 10:49:55;;;;;;;;;;;;;;;23.04;76.38;97302.78;5062727;28;19924;-61
2022/06/08 10:52:30;;;;;;;;;;;;;;;23.03;82.26;97295.75;5065762;28;19925;-58
2022/06/08 10:55:17;;;;;;;;;;;;;;;22.84;87.29;97293.81;5064639;28;19925;-58
2022/06/08 10:57:49;;;;;;;;;;;;;;;23.16;85.29;97289.00;5062069;28;20425;-59
2022/06/08 11:00:27;;;;;;;;;;;;;;;23.41;84.72;97287.59;5062341;28;19925;-59
2022/06/08 11:03:00;;;;;;;;;;;;;;;23.62;73.89;97274.34;5062398;28;19921;-59
2022/06/08 11:05:30;;;;;;;;;;;;;;;23.77;72.00;97269.13;5065390;28;19924;-60
2022/06/08 11:08:14;;;;;;;;;;;;;;;23.93;68.55;97267.06;5064374;28;19925;-59
2022/06/08 11:10:54;;;;;;;;;;;;;;;24.03;71.00;97277.34;5061772;28;19929;-59
2022/06/08 11:13:24;;;;;;;;;;;;;;;24.00;72.99;97267.16;5060836;28;19929;-59
2022/06/08 11:15:54;;;;;;;;;;;;;;;23.84;67.80;97264.56;5061786;28;19993;-60
2022/06/08 11:18:24;;;;;;;;;;;;;;;23.65;68.94;97267.38;5065287;28;19929;-60
2022/06/08 11:20:56;;;;;;;;;;;;;;;23.59;70.90;97261.44;5065317;28;19955;-59
2022/06/08 11:23:25;;;;;;;;;;;;;;;23.54;69.21;97253.56;5061738;28;19948;-59
2022/06/08 11:25:59;;;;;;;;;;;;;;;23.43;69.61;97260.75;5061785;28;19925;-59
2022/06/08 11:28:30;;;;;;;;;;;;;;;23.44;69.68;97251.44;5064972;28;19921;-60
2022/06/08 11:30:58;;;;;;;;;;;;;;;23.28;71.01;97260.81;5063975;28;19924;-60
2022/06/08 11:33:44;;;;;;;;;;;;;;;23.09;70.70;97250.72;5061355;28;19972;-60
2022/06/08 11:36:41;;;;;;;;;;;;;;;23.35;72.84;97252.78;5063965;28;19932;-60
2022/06/08 11:39:18;;;;;;;;;;;;;;;23.78;71.30;97244.22;5062337;28;19925;-60
2022/06/08 11:41:56;;;;;;;;;;;;;;;23.68;67.50;97239.38;5061085;28;19961;-60
2022/06/08 11:44:22;;;;;;;;;;;;;;;23.35;68.39;97239.94;5061100;28;19925;-59
2022/06/08 11:46:53;;;;;;;;;;;;;;;23.53;71.04;97240.28;5061205;28;19940;-60
2022/06/08 11:49:27;;;;;;;;;;;;;;;23.67;68.40;97244.03;5061138;28;19925;-60
2022/06/08 11:51:53;;;;;;;;;;;;;;;23.84;68.63;97242.75;5061150;28;19947;-60
2022/06/08 11:54:23;;;;;;;;;;;;;;;23.94;68.95;97239.44;5064194;28;19929;-60
2022/06/08 11:56:57;;;;;;;;;;;;;;;23.58;68.13;97238.03;5064339;28;19925;-60
2022/06/08 11:59:25;;;;;;;;;;;;;;;23.48;70.35;97235.16;5052724;28;20613;-60
2022/06/08 12:01:52;;;;;;;;;;;;;;;23.53;71.99;97240.28;5052552;28;19925;-60
2022/06/08 12:04:21;;;;;;;;;;;;;;;23.87;72.89;97228.41;5052388;28;19925;-60
2022/06/08 12:06:48;;;;;;;;;;;;;;;23.89;72.79;97225.31;5052452;28;19987;-60
2022/06/08 12:09:19;;;;;;;;;;;;;;;24.09;71.22;97222.13;5052159;28;20539;-60
2022/06/08 12:11:46;;;;;;;;;;;;;;;24.20;71.04;97214.13;5052261;28;19972;-60
2022/06/08 12:14:18;;;;;;;;;;;;;;;24.26;71.12;97214.59;5063605;28;19925;-60
2022/06/08 12:16:53;;;;;;;;;;;;;;;24.05;70.89;97204.91;5063971;28;20026;-60
2022/06/08 12:19:20;;;;;;;;;;;;;;;24.04;72.10;97205.28;5052434;28;19932;-59
2022/06/08 12:21:48;;;;;;;;;;;;;;;23.58;69.96;97208.06;5052240;28;20523;-59
2022/06/08 12:24:24;;;;;;;;;;;;;;;23.33;71.64;97198.66;5052229;28;19965;-59
2022/06/08 12:26:57;;;;;;;;;;;;;;;23.50;72.48;97194.69;5052030;28;19936;-60
2022/06/08 12:29:27;;;;;;;;;;;;;;;23.69;74.85;97191.09;5052019;28;20063;-60
2022/06/08 12:32:01;;;;;;;;;;;;;;;23.65;72.28;97183.66;5051755;28;19932;-61
2022/06/08 12:34:34;;;;;;;;;;;;;;;23.98;70.86;97183.00;5051944;28;19932;-59
2022/06/08 12:37:15;;;;;;;;;;;;;;;24.07;70.27;97182.72;5051694;28;19929;-60
2022/06/08 12:39:41;;;;;;;;;;;;;;;24.24;69.68;97182.22;5051463;28;19929;-60
2022/06/08 12:42:24;;;;;;;;;;;;;;;23.89;70.60;97177.00;5054716;28;19921;-60
2022/06/08 12:44:53;;;;;;;;;;;;;;;23.55;73.13;97172.59;5063514;28;19924;-60
2022/06/08 12:47:20;;;;;;;;;;;;;;;23.70;74.91;97177.13;5051590;28;19931;-60
2022/06/08 12:49:50;;;;;;;;;;;;;;;23.79;75.06;97182.31;5051452;28;19925;-60
2022/06/08 12:52:21;;;;;;;;;;;;;;;23.85;74.02;97170.72;5063229;28;19924;-60
2022/06/08 12:54:48;;;;;;;;;;;;;;;23.87;76.13;97175.78;5062840;28;19984;-60
2022/06/08 12:57:17;;;;;;;;;;;;;;;24.01;73.96;97165.13;5059875;28;19932;-60
2022/06/08 12:59:44;;;;;;;;;;;;;;;23.90;69.21;97164.16;5059688;28;19925;-61
2022/06/08 13:02:14;;;;;;;;;;;;;;;23.85;68.88;97159.03;5062267;28;19956;-60
2022/06/08 13:04:41;;;;;;;;;;;;;;;23.75;71.11;97152.25;5062705;28;19932;-60